Hegewisch, Illinois
Current Conditions -  °F | °C
As of 1:35 AM on Thursday 23 Oct 2014 (Local Time) from KGYY Reporting Station
Clear Clear  
Wind Chill: 38°   Ceiling: Unl
Heat Index: 41°   Visibility: 7mi
Dew Point: 38°   Wind: 5mph
Humidity: 91%   Direction: 140°SE
Pressure: 30.26"   Gusts: NA
Location:  41.6563°N, 87.5444°W
Report Text: KGYY 230635Z AUTO 14004KT 7SM CLR 05/04 A3026 RMK AO2 T00480035
Loading
Personal Weather Stations






























Interactive Weather Map
Tropical Storm Tracking
New forecast layout! Learn more

10-Day Weather Forecast

Advertisements
Track Severe Weather on mobile